General Aviation Weather

Text Reports

Enter one or more of the following location identifiers separated by a space:

Zip Code, Four-Character ICAO or Three-Character IATA airport codes.

METAR - Aviation Routine Weather Report
KMWK - Mount Airy, North Carolina
Updated at 1:15 PM GMT on July 24, 2014 (9:15 AM EDT):
METAR KMWK 241315Z AUTO 00000KT 7SM SCT120 24/22 A2996 RMK AO2 T02350216
TAF - Terminal Area Forecast
KMWK - Mount Airy, North Carolina
Updated at 1:15 PM GMT on July 24, 2014 (9:15 AM EDT):
No TAF is currently available for this location.
Decoded:
No decoded TAF is available.
PIREP - Pilot Weather Report
KMWK - Mount Airy, North Carolina
Updated at 1:15 PM GMT on July 24, 2014 (9:15 AM EDT):
No PIREP is currently available for this location.
AIRMET - Airmens Meteorological Information
KMWK - Mount Airy, North Carolina
Updated at 1:15 PM GMT on July 24, 2014 (9:15 AM EDT):
No AIRMET is currently available for this location.
SIGMET - Significant Meteorological Information
KMWK - Mount Airy, North Carolina
Updated at 1:15 PM GMT on July 24, 2014 (9:15 AM EDT):
No SIGMET is currently available for this location.
NOTAM - Notice to Airmen
KMWK - Mount Airy, North Carolina
Updated at 1:15 PM GMT on July 24, 2014 (9:15 AM EDT):
No NOTAM is currently available for this location.
Forecast Area
KMWK - Mount Airy, North Carolina
Updated at 1:15 PM GMT on July 24, 2014 (9:15 AM EDT):
No NOTAM is currently available for this location.
Aviation Weather Maps